^^
Paulen-Weather Station Historical Data
Daily Summary for July 02, 2022 Units:  Both    English   Metric
Daily Weekly Monthly Yearly Custom
  High: Low: Average:
Temperature: 60.8 °F /  16 °C 59 °F /  15 °C 59.2 °F /  15.1 °C
Dew Point: 57.2 °F /  14 °C 55.4 °F /  13 °C 57 °F /  13.9 °C
Humidity: 94% 86% 92%
Wind Speed: 9.9mph /  16km/h - 4.7mph /  7.5km/h
Wind Gust: 8.7mph /  14km/h - -
Wind- - WSW
Pressure: 30 in /  1014.87 hPa 29.9 in /  1013.48 hPa -
Precipitation: 0 in /  0 mm    
Historical Graphs
 
 
Tabular Data for July 02, 2022
Time Temperature Dew Point Pressure Wind Wind Speed Wind Gust Humidity Rainfall Rate (Hourly) solar
00:04 59 °F /  15 °C 57.2 °F /  14 °C 29.9in /  1013.82hPa W 4.3mph /  7km/h 3.7mph /  6km/h 92% 0in /  0mm 0 W/m2
00:09 59 °F /  15 °C 57.2 °F /  14 °C 29.9in /  1013.88hPa WSW 3.7mph /  6km/h 3.1mph /  5km/h 93% 0in /  0mm 0 W/m2
00:14 59 °F /  15 °C 57.2 °F /  14 °C 29.9in /  1013.95hPa W 5mph /  8km/h 4.3mph /  7km/h 93% 0in /  0mm 0 W/m2
00:19 59 °F /  15 °C 57.2 °F /  14 °C 29.9in /  1013.92hPa W 3.7mph /  6km/h 3.1mph /  5km/h 93% 0in /  0mm 0 W/m2
00:24 59 °F /  15 °C 57.2 °F /  14 °C 29.9in /  1013.82hPa W 3.7mph /  6km/h 2.5mph /  4km/h 93% 0in /  0mm 0 W/m2
00:29 59 °F /  15 °C 57.2 °F /  14 °C 29.9in /  1013.72hPa W 4.3mph /  7km/h 3.1mph /  5km/h 93% 0in /  0mm 0 W/m2
00:34 59 °F /  15 °C 57.2 °F /  14 °C 29.9in /  1013.75hPa W 3.7mph /  6km/h 2.5mph /  4km/h 92% 0in /  0mm 0 W/m2
00:39 59 °F /  15 °C 57.2 °F /  14 °C 29.9in /  1013.82hPa WSW 2.5mph /  4km/h 1.2mph /  2km/h 93% 0in /  0mm 0 W/m2
00:44 59 °F /  15 °C 57.2 °F /  14 °C 29.9in /  1013.95hPa W 3.1mph /  5km/h 2.5mph /  4km/h 93% 0in /  0mm 0 W/m2
00:49 59 °F /  15 °C 57.2 °F /  14 °C 29.9in /  1013.99hPa W 2.5mph /  4km/h 1.2mph /  2km/h 93% 0in /  0mm 0 W/m2
00:54 59 °F /  15 °C 57.2 °F /  14 °C 29.9in /  1014.05hPa WSW 1.2mph /  2km/h 0.6mph /  1km/h 93% 0in /  0mm 0 W/m2
00:59 59 °F /  15 °C 57.2 °F /  14 °C 30in /  1014.12hPa W 1.2mph /  2km/h 1.2mph /  2km/h 93% 0in /  0mm 0 W/m2
01:04 59 °F /  15 °C 57.2 °F /  14 °C 30in /  1014.19hPa WNW 1.9mph /  3km/h 1.2mph /  2km/h 93% 0in /  0mm 0 W/m2
01:09 59 °F /  15 °C 57.2 °F /  14 °C 30in /  1014.22hPa WNW 1.9mph /  3km/h 1.2mph /  2km/h 93% 0in /  0mm 0 W/m2
01:14 59 °F /  15 °C 57.2 °F /  14 °C 30in /  1014.16hPa WNW 3.1mph /  5km/h 1.9mph /  3km/h 93% 0in /  0mm 0 W/m2
01:19 59 °F /  15 °C 57.2 °F /  14 °C 30in /  1014.26hPa W 1.2mph /  2km/h 1.9mph /  3km/h 93% 0in /  0mm 0 W/m2
01:24 59 °F /  15 °C 57.2 °F /  14 °C 30in /  1014.22hPa W 1.9mph /  3km/h 1.9mph /  3km/h 94% 0in /  0mm 0 W/m2
01:29 59 °F /  15 °C 57.2 °F /  14 °C 30in /  1014.19hPa WNW 3.1mph /  5km/h 2.5mph /  4km/h 94% 0in /  0mm 0 W/m2
01:34 59 °F /  15 °C 57.2 °F /  14 °C 30in /  1014.12hPa W 2.5mph /  4km/h 3.1mph /  5km/h 94% 0in /  0mm 0 W/m2
01:39 59 °F /  15 °C 57.2 °F /  14 °C 30in /  1014.12hPa WNW 2.5mph /  4km/h 1.9mph /  3km/h 94% 0in /  0mm 0 W/m2
01:44 59 °F /  15 °C 57.2 °F /  14 °C 30in /  1014.19hPa W 2.5mph /  4km/h 1.9mph /  3km/h 94% 0in /  0mm 0 W/m2
01:49 59 °F /  15 °C 57.2 °F /  14 °C 30in /  1014.19hPa W 4.3mph /  7km/h 2.5mph /  4km/h 94% 0in /  0mm 0 W/m2
01:54 59 °F /  15 °C 57.2 °F /  14 °C 30in /  1014.16hPa WNW 3.1mph /  5km/h 1.9mph /  3km/h 94% 0in /  0mm 0 W/m2
01:59 59 °F /  15 °C 57.2 °F /  14 °C 30in /  1014.16hPa W 3.1mph /  5km/h 2.5mph /  4km/h 94% 0in /  0mm 0 W/m2
02:04 59 °F /  15 °C 57.2 °F /  14 °C 29.9in /  1014.09hPa WNW 3.7mph /  6km/h 3.1mph /  5km/h 94% 0in /  0mm 0 W/m2
02:09 59 °F /  15 °C 57.2 °F /  14 °C 29.9in /  1013.99hPa WNW 3.1mph /  5km/h 3.1mph /  5km/h 94% 0in /  0mm 0 W/m2
02:14 59 °F /  15 °C 57.2 °F /  14 °C 29.9in /  1013.95hPa WNW 5mph /  8km/h 3.1mph /  5km/h 94% 0in /  0mm 0 W/m2
02:19 59 °F /  15 °C 57.2 °F /  14 °C 29.9in /  1013.92hPa W 5mph /  8km/h 4.3mph /  7km/h 93% 0in /  0mm 0 W/m2
02:24 59 °F /  15 °C 57.2 °F /  14 °C 29.9in /  1013.92hPa WSW 5mph /  8km/h 4.3mph /  7km/h 93% 0in /  0mm 0 W/m2
02:29 59 °F /  15 °C 57.2 °F /  14 °C 29.9in /  1014.02hPa W 5.6mph /  9km/h 4.3mph /  7km/h 93% 0in /  0mm 0 W/m2
02:34 59 °F /  15 °C 57.2 °F /  14 °C 29.9in /  1014.02hPa SW 3.7mph /  6km/h 4.3mph /  7km/h 93% 0in /  0mm 0 W/m2
02:39 59 °F /  15 °C 57.2 °F /  14 °C 29.9in /  1013.95hPa W 5mph /  8km/h 3.7mph /  6km/h 93% 0in /  0mm 0 W/m2
02:44 59 °F /  15 °C 57.2 °F /  14 °C 29.9in /  1013.85hPa WSW 5.6mph /  9km/h 4.3mph /  7km/h 92% 0in /  0mm 0 W/m2
02:49 59 °F /  15 °C 57.2 °F /  14 °C 29.9in /  1013.82hPa WSW 4.3mph /  7km/h 4.3mph /  7km/h 92% 0in /  0mm 0 W/m2
02:54 59 °F /  15 °C 57.2 °F /  14 °C 29.9in /  1013.78hPa W 5.6mph /  9km/h 5mph /  8km/h 92% 0in /  0mm 0 W/m2
02:59 59 °F /  15 °C 57.2 °F /  14 °C 29.9in /  1013.72hPa W 5mph /  8km/h 3.7mph /  6km/h 92% 0in /  0mm 0 W/m2
03:04 59 °F /  15 °C 57.2 °F /  14 °C 29.9in /  1013.72hPa W 3.7mph /  6km/h 2.5mph /  4km/h 92% 0in /  0mm 0 W/m2
03:09 59 °F /  15 °C 57.2 °F /  14 °C 29.9in /  1013.75hPa WSW 5.6mph /  9km/h 3.7mph /  6km/h 92% 0in /  0mm 0 W/m2
03:14 59 °F /  15 °C 57.2 °F /  14 °C 29.9in /  1013.78hPa SSW 3.7mph /  6km/h 3.1mph /  5km/h 92% 0in /  0mm 0 W/m2
03:19 59 °F /  15 °C 57.2 °F /  14 °C 29.9in /  1013.85hPa WSW 4.3mph /  7km/h 3.1mph /  5km/h 92% 0in /  0mm 0 W/m2
03:24 59 °F /  15 °C 57.2 °F /  14 °C 29.9in /  1013.82hPa SSW 6.2mph /  10km/h 5mph /  8km/h 91% 0in /  0mm 0 W/m2
03:29 59 °F /  15 °C 57.2 °F /  14 °C 29.9in /  1013.75hPa SW 6.8mph /  11km/h 5mph /  8km/h 90% 0in /  0mm 0 W/m2
03:34 59 °F /  15 °C 57.2 °F /  14 °C 29.9in /  1013.65hPa WSW 6.2mph /  10km/h 5mph /  8km/h 90% 0in /  0mm 0 W/m2
03:39 59 °F /  15 °C 57.2 °F /  14 °C 29.9in /  1013.65hPa W 5mph /  8km/h 3.7mph /  6km/h 89% 0in /  0mm 0 W/m2
03:44 59 °F /  15 °C 57.2 °F /  14 °C 29.9in /  1013.58hPa W 5mph /  8km/h 3.1mph /  5km/h 90% 0in /  0mm 0 W/m2
03:49 59 °F /  15 °C 57.2 °F /  14 °C 29.9in /  1013.58hPa WSW 5.6mph /  9km/h 5mph /  8km/h 90% 0in /  0mm 0 W/m2
03:54 59 °F /  15 °C 57.2 °F /  14 °C 29.9in /  1013.61hPa WSW 7.5mph /  12km/h 5mph /  8km/h 90% 0in /  0mm 0 W/m2
03:59 59 °F /  15 °C 57.2 °F /  14 °C 29.9in /  1013.72hPa WSW 6.8mph /  11km/h 5mph /  8km/h 90% 0in /  0mm 0 W/m2
04:04 59 °F /  15 °C 57.2 °F /  14 °C 29.9in /  1013.75hPa WSW 6.8mph /  11km/h 5mph /  8km/h 90% 0in /  0mm 0 W/m2
04:09 59 °F /  15 °C 57.2 °F /  14 °C 29.9in /  1013.72hPa WSW 5mph /  8km/h 3.1mph /  5km/h 90% 0in /  0mm 0 W/m2
04:14 59 °F /  15 °C 57.2 °F /  14 °C 29.9in /  1013.75hPa W 5mph /  8km/h 3.7mph /  6km/h 90% 0in /  0mm 0 W/m2
04:19 59 °F /  15 °C 57.2 °F /  14 °C 29.9in /  1013.78hPa W 4.3mph /  7km/h 3.1mph /  5km/h 90% 0in /  0mm 0 W/m2
04:24 59 °F /  15 °C 57.2 °F /  14 °C 29.9in /  1013.82hPa W 4.3mph /  7km/h 3.1mph /  5km/h 90% 0in /  0mm 0 W/m2
04:29 59 °F /  15 °C 57.2 °F /  14 °C 29.9in /  1013.82hPa W 5.6mph /  9km/h 4.3mph /  7km/h 90% 0in /  0mm 0 W/m2
04:34 59 °F /  15 °C 57.2 °F /  14 °C 29.9in /  1013.75hPa WSW 5mph /  8km/h 5mph /  8km/h 91% 0in /  0mm 0 W/m2
04:39 59 °F /  15 °C 57.2 °F /  14 °C 29.9in /  1013.75hPa WSW 5.6mph /  9km/h 5mph /  8km/h 91% 0in /  0mm 0 W/m2
04:44 59 °F /  15 °C 57.2 °F /  14 °C 29.9in /  1013.68hPa WSW 4.3mph /  7km/h 3.7mph /  6km/h 91% 0in /  0mm 7 W/m2
04:49 59 °F /  15 °C 57.2 °F /  14 °C 29.9in /  1013.65hPa WNW 5mph /  8km/h 3.1mph /  5km/h 91% 0in /  0mm 7 W/m2
04:54 59 °F /  15 °C 57.2 °F /  14 °C 29.9in /  1013.68hPa W 3.7mph /  6km/h 2.5mph /  4km/h 91% 0in /  0mm 7 W/m2
04:59 59 °F /  15 °C 55.4 °F /  13 °C 29.9in /  1013.72hPa WSW 3.1mph /  5km/h 1.9mph /  3km/h 91% 0in /  0mm 9 W/m2
05:04 59 °F /  15 °C 55.4 °F /  13 °C 29.9in /  1013.58hPa WSW 4.3mph /  7km/h 3.1mph /  5km/h 91% 0in /  0mm 9 W/m2
05:09 59 °F /  15 °C 55.4 °F /  13 °C 29.9in /  1013.58hPa WSW 3.7mph /  6km/h 3.1mph /  5km/h 91% 0in /  0mm 11 W/m2
05:14 59 °F /  15 °C 57.2 °F /  14 °C 29.9in /  1013.48hPa W 3.7mph /  6km/h 3.7mph /  6km/h 92% 0in /  0mm 11 W/m2
05:19 59 °F /  15 °C 55.4 °F /  13 °C 29.9in /  1013.61hPa W 3.7mph /  6km/h 3.1mph /  5km/h 92% 0in /  0mm 14 W/m2
05:24 59 °F /  15 °C 55.4 °F /  13 °C 29.9in /  1013.61hPa W 3.7mph /  6km/h 3.7mph /  6km/h 92% 0in /  0mm 16 W/m2
05:29 59 °F /  15 °C 55.4 °F /  13 °C 29.9in /  1013.61hPa WSW 5mph /  8km/h 3.7mph /  6km/h 92% 0in /  0mm 18 W/m2
05:34 59 °F /  15 °C 55.4 °F /  13 °C 29.9in /  1013.65hPa WSW 3.7mph /  6km/h 3.1mph /  5km/h 92% 0in /  0mm 18 W/m2
05:39 59 °F /  15 °C 55.4 °F /  13 °C 29.9in /  1013.72hPa WSW 3.7mph /  6km/h 3.7mph /  6km/h 92% 0in /  0mm 16 W/m2
05:44 59 °F /  15 °C 55.4 °F /  13 °C 29.9in /  1013.75hPa WSW 3.7mph /  6km/h 3.7mph /  6km/h 92% 0in /  0mm 16 W/m2
05:49 59 °F /  15 °C 57.2 °F /  14 °C 29.9in /  1013.88hPa WSW 3.7mph /  6km/h 3.7mph /  6km/h 92% 0in /  0mm 19 W/m2
05:54 59 °F /  15 °C 57.2 °F /  14 °C 29.9in /  1013.92hPa SW 3.7mph /  6km/h 2.5mph /  4km/h 93% 0in /  0mm 30 W/m2
05:59 59 °F /  15 °C 57.2 °F /  14 °C 29.9in /  1013.99hPa WSW 4.3mph /  7km/h 3.1mph /  5km/h 93% 0in /  0mm 40 W/m2
06:04 59 °F /  15 °C 57.2 °F /  14 °C 29.9in /  1014.02hPa WSW 4.3mph /  7km/h 3.7mph /  6km/h 93% 0in /  0mm 44 W/m2
06:09 59 °F /  15 °C 57.2 °F /  14 °C 30in /  1014.12hPa WSW 3.1mph /  5km/h 3.1mph /  5km/h 93% 0in /  0mm 51 W/m2
06:14 59 °F /  15 °C 57.2 °F /  14 °C 30in /  1014.19hPa SW 3.7mph /  6km/h 2.5mph /  4km/h 93% 0in /  0mm 58 W/m2
06:19 59 °F /  15 °C 57.2 °F /  14 °C 30in /  1014.26hPa SW 4.3mph /  7km/h 3.1mph /  5km/h 92% 0in /  0mm 65 W/m2
06:24 59 °F /  15 °C 57.2 °F /  14 °C 30in /  1014.22hPa WSW 3.7mph /  6km/h 2.5mph /  4km/h 92% 0in /  0mm 72 W/m2
06:29 59 °F /  15 °C 57.2 °F /  14 °C 30in /  1014.33hPa WSW 2.5mph /  4km/h 2.5mph /  4km/h 92% 0in /  0mm 77 W/m2
06:34 59 °F /  15 °C 57.2 °F /  14 °C 30in /  1014.49hPa WSW 3.1mph /  5km/h 3.1mph /  5km/h 92% 0in /  0mm 116 W/m2
06:39 59 °F /  15 °C 57.2 °F /  14 °C 30in /  1014.6hPa S 2.5mph /  4km/h 3.1mph /  5km/h 92% 0in /  0mm 109 W/m2
06:44 59 °F /  15 °C 57.2 °F /  14 °C 30in /  1014.6hPa SW 3.1mph /  5km/h 2.5mph /  4km/h 92% 0in /  0mm 49 W/m2
06:49 59 °F /  15 °C 57.2 °F /  14 °C 30in /  1014.66hPa SW 6.2mph /  10km/h 6.2mph /  10km/h 91% 0in /  0mm 40 W/m2
06:54 59 °F /  15 °C 57.2 °F /  14 °C 30in /  1014.63hPa SW 7.5mph /  12km/h 6.8mph /  11km/h 91% 0in /  0mm 77 W/m2
06:59 59 °F /  15 °C 57.2 °F /  14 °C 30in /  1014.56hPa SW 8.1mph /  13km/h 5.6mph /  9km/h 91% 0in /  0mm 95 W/m2
07:04 59 °F /  15 °C 57.2 °F /  14 °C 30in /  1014.49hPa SSW 6.8mph /  11km/h 5mph /  8km/h 91% 0in /  0mm 95 W/m2
07:09 59 °F /  15 °C 57.2 °F /  14 °C 30in /  1014.53hPa SSW 5.6mph /  9km/h 4.3mph /  7km/h 91% 0in /  0mm 97 W/m2
07:14 59 °F /  15 °C 57.2 °F /  14 °C 30in /  1014.56hPa SW 5.6mph /  9km/h 3.7mph /  6km/h 90% 0in /  0mm 102 W/m2
07:19 59 °F /  15 °C 57.2 °F /  14 °C 30in /  1014.6hPa SW 7.5mph /  12km/h 6.8mph /  11km/h 89% 0in /  0mm 116 W/m2
07:24 59 °F /  15 °C 57.2 °F /  14 °C 30in /  1014.66hPa SW 7.5mph /  12km/h 5mph /  8km/h 89% 0in /  0mm 123 W/m2
07:29 60.8 °F /  16 °C 57.2 °F /  14 °C 30in /  1014.77hPa SW 7.5mph /  12km/h 3.7mph /  6km/h 89% 0in /  0mm 107 W/m2
07:34 60.8 °F /  16 °C 57.2 °F /  14 °C 30in /  1014.8hPa SW 5mph /  8km/h 5mph /  8km/h 89% 0in /  0mm 76 W/m2
07:39 60.8 °F /  16 °C 57.2 °F /  14 °C 30in /  1014.66hPa SW 8.1mph /  13km/h 6.8mph /  11km/h 88% 0in /  0mm 56 W/m2
07:44 60.8 °F /  16 °C 57.2 °F /  14 °C 30in /  1014.77hPa SW 8.1mph /  13km/h 6.8mph /  11km/h 88% 0in /  0mm 69 W/m2
07:49 60.8 °F /  16 °C 55.4 °F /  13 °C 30in /  1014.87hPa SSW 6.2mph /  10km/h 6.8mph /  11km/h 87% 0in /  0mm 65 W/m2
07:54 60.8 °F /  16 °C 55.4 °F /  13 °C 30in /  1014.87hPa SSW 8.7mph /  14km/h 7.5mph /  12km/h 87% 0in /  0mm 69 W/m2
07:59 60.8 °F /  16 °C 55.4 °F /  13 °C 30in /  1014.83hPa SSW 9.3mph /  15km/h 6.2mph /  10km/h 86% 0in /  0mm 69 W/m2
08:04 60.8 °F /  16 °C 55.4 °F /  13 °C 30in /  1014.83hPa SSW 9.3mph /  15km/h 7.5mph /  12km/h 86% 0in /  0mm 113 W/m2
08:09 60.8 °F /  16 °C 55.4 °F /  13 °C 30in /  1014.77hPa SSW 9.9mph /  16km/h 8.7mph /  14km/h 87% 0in /  0mm 104 W/m2
Compliments of Weather Underground - 2 mb